Time;durP1;ratioP1;P1;durP2;ratioP2;P2;SDS_P1;SDS_P2;PMS_P1;PMS_P2;Temp;Humidity;BMP_temperature;BMP_pressure;BME280_temperature;BME280_humidity;BME280_pressure;Samples;Min_cycle;Max_cycle;Signal;HPM_P1;HPM_P2
2024/01/13 00:01:34;;;;;;;12.93;4.55;;;;;;;-4.11;100.00;99265.91;4501480;31;20096;-72
2024/01/13 00:04:02;;;;;;;8.80;4.10;;;;;;;-4.16;100.00;99260.91;4501599;31;20164;-72
2024/01/13 00:06:29;;;;;;;14.52;5.03;;;;;;;-4.14;100.00;99261.69;4500024;31;20458;-72
2024/01/13 00:08:56;;;;;;;14.15;5.55;;;;;;;-4.16;100.00;99249.81;4501617;31;20108;-72
2024/01/13 00:11:23;;;;;;;12.15;4.57;;;;;;;-4.24;100.00;99247.41;4501380;31;20122;-72
2024/01/13 00:13:50;;;;;;;10.07;5.30;;;;;;;-4.27;100.00;99260.25;4501479;31;20114;-72
2024/01/13 00:16:17;;;;;;;9.02;3.92;;;;;;;-4.25;100.00;99234.66;4501363;31;20115;-72
2024/01/13 00:18:44;;;;;;;9.10;4.72;;;;;;;-4.20;100.00;99241.34;4492820;31;20155;-72
2024/01/13 00:21:12;;;;;;;10.25;4.85;;;;;;;-4.16;100.00;99249.81;4484307;32;20108;-72
2024/01/13 00:23:39;;;;;;;7.70;3.72;;;;;;;-4.14;100.00;99248.06;4485694;31;20168;-72
2024/01/13 00:26:06;;;;;;;14.20;6.03;;;;;;;-4.11;100.00;99243.72;4485448;31;20119;-72
2024/01/13 00:28:33;;;;;;;11.07;4.53;;;;;;;-4.01;100.00;99251.19;4485612;31;20099;-72
2024/01/13 00:31:05;;;;;;;12.13;5.40;;;;;;;-4.04;100.00;99243.56;4498581;31;20594;-72
2024/01/13 00:33:33;;;;;;;12.50;5.75;;;;;;;-4.00;100.00;99245.19;4501374;31;20100;-72
2024/01/13 00:36:02;;;;;;;12.43;5.55;;;;;;;-3.99;100.00;99244.34;4501131;31;20176;-72
2024/01/13 00:38:30;;;;;;;14.68;5.43;;;;;;;-3.98;100.00;99258.78;4501581;31;20095;-72
2024/01/13 00:41:04;;;;;;;9.55;5.40;;;;;;;-4.00;100.00;99261.37;4501206;31;20079;-72
2024/01/13 00:43:34;;;;;;;11.90;4.90;;;;;;;-4.00;100.00;99260.56;4501273;31;20147;-72
2024/01/13 00:46:01;;;;;;;11.40;4.72;;;;;;;-3.95;100.00;99253.63;4501233;31;20096;-72
2024/01/13 00:48:29;;;;;;;10.60;4.75;;;;;;;-3.93;100.00;99249.31;4501294;31;20096;-72
2024/01/13 00:51:11;;;;;;;13.02;4.85;;;;;;;-3.87;100.00;99256.03;4501266;31;20084;-72
2024/01/13 00:53:41;;;;;;;15.63;5.75;;;;;;;-3.89;100.00;99230.47;4499277;31;20110;-72
2024/01/13 00:56:09;;;;;;;11.15;5.30;;;;;;;-3.85;100.00;99239.72;4500960;31;20156;-72
2024/01/13 00:58:37;;;;;;;13.85;5.78;;;;;;;-3.86;100.00;99240.63;4501315;31;20105;-72
2024/01/13 01:01:13;;;;;;;7.87;4.68;;;;;;;-3.82;100.00;99247.34;4501090;31;20446;-72
2024/01/13 01:03:43;;;;;;;8.85;5.07;;;;;;;-3.81;100.00;99251.59;4500301;31;20123;-72
2024/01/13 01:06:11;;;;;;;13.77;6.18;;;;;;;-3.79;100.00;99251.56;4501053;31;20422;-72
2024/01/13 01:08:39;;;;;;;10.02;5.22;;;;;;;-3.79;100.00;99257.50;4501063;31;20467;-72
2024/01/13 01:11:08;;;;;;;12.02;5.07;;;;;;;-3.79;100.00;99252.38;4501197;31;20159;-72
2024/01/13 01:13:37;;;;;;;11.27;5.95;;;;;;;-3.79;100.00;99251.56;4501310;31;20096;-72
2024/01/13 01:16:05;;;;;;;11.25;5.28;;;;;;;-3.77;100.00;99242.09;4500970;31;20511;-72
2024/01/13 01:18:32;;;;;;;17.05;5.40;;;;;;;-3.79;100.00;99249.00;4493764;31;20490;-72
2024/01/13 01:21:13;;;;;;;9.70;5.30;;;;;;;-3.76;100.00;99236.13;4485342;31;20110;-72
2024/01/13 01:23:42;;;;;;;10.02;5.07;;;;;;;-3.64;100.00;99248.63;4485098;31;20118;-72
2024/01/13 01:26:09;;;;;;;9.60;5.55;;;;;;;-3.64;100.00;99238.37;4485113;31;20160;-72
2024/01/13 01:28:37;;;;;;;12.82;6.53;;;;;;;-3.56;100.00;99253.56;4484027;32;20108;-72
2024/01/13 01:31:05;;;;;;;10.77;5.22;;;;;;;-3.61;100.00;99247.72;4498257;31;20116;-72
2024/01/13 01:33:36;;;;;;;8.48;4.57;;;;;;;-3.60;100.00;99241.75;4500877;31;20148;-72
2024/01/13 01:36:05;;;;;;;11.27;5.53;;;;;;;-3.61;100.00;99227.25;4500790;31;20477;-72
2024/01/13 01:38:33;;;;;;;9.45;5.72;;;;;;;-3.60;100.00;99234.88;4501072;31;20095;-72
2024/01/13 01:41:12;;;;;;;7.12;4.50;;;;;;;-3.59;100.00;99235.72;4501020;31;20540;-72
2024/01/13 01:43:39;;;;;;;11.95;6.15;;;;;;;-3.54;100.00;99233.03;4500998;31;20446;-72
2024/01/13 01:46:10;;;;;;;9.95;4.37;;;;;;;-3.62;100.00;99234.09;4501121;31;20091;-72
2024/01/13 01:48:41;;;;;;;11.30;5.15;;;;;;;-3.64;100.00;99232.44;4500884;31;20765;-72
2024/01/13 01:51:14;;;;;;;12.45;5.47;;;;;;;-3.62;100.00;99240.91;4499845;31;20083;-72
2024/01/13 01:53:45;;;;;;;11.73;6.12;;;;;;;-3.64;100.00;99229.88;4500734;31;20120;-72
2024/01/13 01:56:22;;;;;;;12.68;5.20;;;;;;;-3.67;100.00;99223.09;4500950;31;20099;-72
2024/01/13 01:58:52;;;;;;;5.60;3.50;;;;;;;-3.66;100.00;99218.84;4500505;31;20151;-72
2024/01/13 02:01:19;;;;;;;8.88;4.45;;;;;;;-3.68;100.00;99210.34;4500881;31;20532;-72
2024/01/13 02:03:48;;;;;;;14.80;6.40;;;;;;;-3.70;100.00;99201.88;4500603;31;20556;-72
2024/01/13 02:06:15;;;;;;;13.23;4.90;;;;;;;-3.69;100.00;99194.16;4500492;31;20104;-72
2024/01/13 02:08:45;;;;;;;12.82;6.10;;;;;;;-3.72;100.00;99194.22;4500852;31;20417;-72
2024/01/13 02:11:13;;;;;;;9.40;4.40;;;;;;;-3.72;100.00;99181.41;4500673;31;20129;-72
2024/01/13 02:13:49;;;;;;;12.52;5.30;;;;;;;-3.78;100.00;99192.63;4500726;31;20737;-72
2024/01/13 02:16:16;;;;;;;8.95;4.72;;;;;;;-3.77;100.00;99180.66;4500477;31;20104;-72
2024/01/13 02:18:44;;;;;;;13.02;4.20;;;;;;;-3.78;100.00;99184.97;4492214;31;20100;-72
2024/01/13 02:21:13;;;;;;;12.50;6.03;;;;;;;-3.83;100.00;99181.69;4485135;31;20100;-72
2024/01/13 02:23:43;;;;;;;10.70;4.93;;;;;;;-3.79;100.00;99175.59;4484690;31;20125;-72
2024/01/13 02:26:11;;;;;;;12.93;5.28;;;;;;;-3.77;100.00;99178.13;4484824;31;20097;-72
2024/01/13 02:28:39;;;;;;;8.98;5.47;;;;;;;-3.76;100.00;99170.41;4484435;31;20439;-72
2024/01/13 02:31:20;;;;;;;10.30;4.68;;;;;;;-3.76;100.00;99178.06;4499742;31;20129;-72
2024/01/13 02:33:50;;;;;;;12.55;5.70;;;;;;;-3.76;100.00;99178.06;4500347;31;20493;-72
2024/01/13 02:36:21;;;;;;;9.30;4.43;;;;;;;-3.77;100.00;99180.66;4500423;31;20123;-72
2024/01/13 02:38:50;;;;;;;12.25;5.78;;;;;;;-3.81;100.00;99192.72;4500580;31;20119;-72
2024/01/13 02:41:17;;;;;;;10.77;5.05;;;;;;;-3.80;100.00;99180.75;4500734;31;20091;-72
2024/01/13 02:43:45;;;;;;;11.60;4.68;;;;;;;-3.78;100.00;99190.09;4500339;31;20118;-72
2024/01/13 02:46:13;;;;;;;13.27;5.10;;;;;;;-3.76;100.00;99180.63;4500384;31;20131;-72
2024/01/13 02:48:43;;;;;;;7.87;4.15;;;;;;;-3.80;100.00;99181.59;4500301;31;20161;-72
2024/01/13 02:51:14;;;;;;;12.25;6.35;;;;;;;-3.82;100.00;99173.09;4499216;31;20096;-72
2024/01/13 02:53:43;;;;;;;8.77;5.12;;;;;;;-3.82;100.00;99180.78;4500384;31;20071;-72
2024/01/13 02:56:10;;;;;;;7.82;3.95;;;;;;;-3.86;100.00;99168.97;4500384;31;20096;-72
2024/01/13 02:58:38;;;;;;;13.60;6.22;;;;;;;-3.85;100.00;99168.06;4500137;31;20144;-72
2024/01/13 03:01:14;;;;;;;8.85;3.95;;;;;;;-3.85;100.00;99159.56;4500653;31;20106;-72
2024/01/13 03:03:48;;;;;;;12.40;5.45;;;;;;;-3.88;100.00;99163.03;4500093;31;20080;-72
2024/01/13 03:06:18;;;;;;;10.02;4.50;;;;;;;-3.84;100.00;99149.28;4500102;31;20464;-72
2024/01/13 03:08:46;;;;;;;10.95;4.20;;;;;;;-3.83;100.00;99148.41;4499869;31;20123;-72
2024/01/13 03:11:13;;;;;;;8.13;4.90;;;;;;;-3.76;100.00;99152.47;4500149;31;20111;-72
2024/01/13 03:13:43;;;;;;;18.85;8.13;;;;;;;-3.78;100.00;99145.72;4499855;31;20116;-72
2024/01/13 03:16:14;;;;;;;11.10;5.57;;;;;;;-3.72;100.00;99137.91;4499972;31;20100;-72
2024/01/13 03:18:41;;;;;;;16.67;4.78;;;;;;;-3.73;100.00;99140.50;4493369;31;20100;-72
2024/01/13 03:21:11;;;;;;;8.18;4.30;;;;;;;-3.70;100.00;99131.00;4486105;31;20088;-72
2024/01/13 03:23:45;;;;;;;13.25;5.85;;;;;;;-3.73;100.00;99125.13;4486012;31;20147;-72
2024/01/13 03:26:13;;;;;;;12.37;5.55;;;;;;;-3.76;100.00;99136.28;4486082;31;20193;-72
2024/01/13 03:28:43;;;;;;;10.52;4.60;;;;;;;-3.69;100.00;99121.59;4485851;31;20084;-72
2024/01/13 03:31:13;;;;;;;11.25;5.18;;;;;;;-3.70;100.00;99136.12;4499830;31;20119;-72
2024/01/13 03:33:45;;;;;;;10.52;5.32;;;;;;;-3.68;100.00;99130.97;4501752;31;20106;-72
2024/01/13 03:36:14;;;;;;;10.57;5.28;;;;;;;-3.68;100.00;99133.53;4502092;31;20089;-72
2024/01/13 03:38:41;;;;;;;14.15;5.85;;;;;;;-3.62;100.00;99125.69;4501582;31;20100;-72
2024/01/13 03:41:13;;;;;;;16.35;5.97;;;;;;;-3.62;100.00;99136.78;4502047;31;20076;-72
2024/01/13 03:43:41;;;;;;;11.57;4.90;;;;;;;-3.64;100.00;99130.84;4501552;31;20096;-72
2024/01/13 03:46:08;;;;;;;12.13;6.12;;;;;;;-3.63;100.00;99131.72;4501703;31;20092;-72
2024/01/13 03:48:36;;;;;;;14.15;6.75;;;;;;;-3.65;100.00;99133.44;4501850;31;20456;-72
2024/01/13 03:51:05;;;;;;;15.18;6.68;;;;;;;-3.67;100.00;99143.72;4501836;31;20544;-72
2024/01/13 03:53:32;;;;;;;10.02;4.78;;;;;;;-3.68;100.00;99134.38;4501744;31;20087;-72
2024/01/13 03:56:04;;;;;;;12.98;5.82;;;;;;;-3.70;100.00;99133.56;4501432;31;20648;-72
2024/01/13 03:58:35;;;;;;;11.48;4.32;;;;;;;-3.70;100.00;99137.84;4501679;31;20563;-72
2024/01/13 04:01:03;;;;;;;12.80;5.35;;;;;;;-3.71;100.00;99128.50;4501601;31;20157;-72
2024/01/13 04:03:31;;;;;;;13.70;5.50;;;;;;;-3.67;100.00;99115.56;4501603;31;20088;-72
2024/01/13 04:06:02;;;;;;;15.32;7.05;;;;;;;-3.69;100.00;99119.91;4501421;31;20444;-72
2024/01/13 04:08:33;;;;;;;11.10;4.82;;;;;;;-3.75;100.00;99122.63;4501628;31;20080;-72
2024/01/13 04:11:08;;;;;;;14.90;5.62;;;;;;;-3.69;100.00;99116.47;4501515;31;20084;-72
2024/01/13 04:13:36;;;;;;;14.98;6.20;;;;;;;-3.71;100.00;99110.56;4501601;31;20068;-72
2024/01/13 04:16:04;;;;;;;18.62;6.12;;;;;;;-3.73;100.00;99109.78;4501387;31;20092;-72
2024/01/13 04:18:31;;;;;;;17.95;6.03;;;;;;;-3.68;100.00;99118.16;4494467;31;20096;-72
2024/01/13 04:20:59;;;;;;;15.50;6.97;;;;;;;-3.70;100.00;99114.81;4485461;31;20096;-72
2024/01/13 04:23:44;;;;;;;11.15;4.57;;;;;;;-3.75;100.00;99110.66;4486034;32;20208;-72
2024/01/13 04:26:15;;;;;;;11.65;4.62;;;;;;;-3.73;100.00;99110.59;4485852;31;20141;-72
2024/01/13 04:28:43;;;;;;;5.87;3.95;;;;;;;-3.75;100.00;99108.09;4485489;31;20145;-72
2024/01/13 04:31:10;;;;;;;10.45;7.03;;;;;;;-3.68;100.00;99100.25;4499330;31;20110;-72
2024/01/13 04:33:38;;;;;;;14.05;6.85;;;;;;;-3.65;100.00;99112.97;4501413;31;20080;-72
2024/01/13 04:36:07;;;;;;;16.08;5.82;;;;;;;-3.63;100.00;99101.81;4501109;31;20127;-72
2024/01/13 04:38:34;;;;;;;7.87;4.50;;;;;;;-3.57;100.00;99096.53;4500129;31;20108;-72
2024/01/13 04:41:02;;;;;;;12.85;4.93;;;;;;;-3.55;100.00;99103.34;4501106;31;20096;-72
2024/01/13 04:43:29;;;;;;;17.33;6.28;;;;;;;-3.53;100.00;99104.13;4501266;31;20083;-72
2024/01/13 04:45:57;;;;;;;11.30;4.45;;;;;;;-3.58;100.00;99099.13;4499831;31;20131;-72
2024/01/13 04:48:24;;;;;;;12.80;5.90;;;;;;;-3.52;100.00;99082.78;4500086;31;20104;-72
2024/01/13 04:50:52;;;;;;;12.95;5.47;;;;;;;-3.51;100.00;99092.97;4501385;31;20429;-72
2024/01/13 04:53:20;;;;;;;11.63;5.50;;;;;;;-3.46;100.00;99100.53;4501170;31;20529;-72
2024/01/13 04:55:48;;;;;;;12.75;5.65;;;;;;;-3.51;100.00;99092.97;4501342;31;20104;-72
2024/01/13 04:58:15;;;;;;;10.40;4.95;;;;;;;-3.49;100.00;99092.94;4501170;31;20107;-72
2024/01/13 05:00:44;;;;;;;10.27;4.75;;;;;;;-3.45;100.00;99095.38;4500966;31;20113;-72
2024/01/13 05:03:12;;;;;;;9.77;5.53;;;;;;;-3.47;100.00;99092.00;4501228;31;20106;-72
2024/01/13 05:05:39;;;;;;;12.60;5.20;;;;;;;-3.43;100.00;99087.66;4500996;31;20104;-72
2024/01/13 05:08:07;;;;;;;12.02;4.90;;;;;;;-3.46;100.00;99088.56;4501361;31;20118;-72
2024/01/13 05:10:34;;;;;;;15.85;6.07;;;;;;;-3.39;100.00;99097.75;4501024;31;20096;-72
2024/01/13 05:13:02;;;;;;;10.20;4.32;;;;;;;-3.36;100.00;99096.00;4501127;31;20096;-72
2024/01/13 05:15:31;;;;;;;11.73;5.28;;;;;;;-3.37;100.00;99091.78;4501262;31;20092;-72
2024/01/13 05:17:58;;;;;;;13.20;5.50;;;;;;;-3.32;100.00;99092.47;4497460;31;20118;-72
2024/01/13 05:20:26;;;;;;;9.65;4.47;;;;;;;-3.32;100.00;99092.47;4484980;31;20478;-72
2024/01/13 05:22:53;;;;;;;10.85;4.75;;;;;;;-3.27;100.00;99095.72;4485550;31;20108;-72
2024/01/13 05:25:20;;;;;;;9.45;3.92;;;;;;;-3.27;100.00;99098.28;4484000;32;20101;-72
2024/01/13 05:28:02;;;;;;;9.18;4.53;;;;;;;-3.29;100.00;99095.78;4485256;31;20107;-72
2024/01/13 05:30:32;;;;;;;12.93;5.72;;;;;;;-3.31;100.00;99092.44;4494201;31;20125;-72
2024/01/13 05:33:02;;;;;;;7.32;4.30;;;;;;;-3.31;100.00;99096.72;4501356;31;20113;-72
2024/01/13 05:35:30;;;;;;;7.82;3.55;;;;;;;-3.32;100.00;99095.03;4501030;31;20103;-72
2024/01/13 05:37:58;;;;;;;9.60;4.28;;;;;;;-3.29;100.00;99093.22;4500793;31;20119;-72
2024/01/13 05:40:25;;;;;;;8.88;5.05;;;;;;;-3.24;100.00;99106.75;4500293;31;20156;-72
2024/01/13 05:42:52;;;;;;;9.68;4.22;;;;;;;-3.17;100.00;99093.78;4501268;31;20080;-72
2024/01/13 05:45:19;;;;;;;11.88;5.82;;;;;;;-3.18;100.00;99118.53;4501223;31;20100;-72
2024/01/13 05:47:50;;;;;;;10.75;5.53;;;;;;;-3.17;100.00;99109.97;4500830;31;20092;-72
2024/01/13 05:50:18;;;;;;;10.07;5.50;;;;;;;-3.18;100.00;99108.28;4500747;31;20115;-72
2024/01/13 05:52:45;;;;;;;12.77;5.05;;;;;;;-3.10;100.00;99108.94;4500871;31;20084;-72
2024/01/13 05:55:12;;;;;;;14.80;4.90;;;;;;;-3.04;100.00;99121.56;4501079;31;20114;-72
2024/01/13 05:57:39;;;;;;;12.23;6.22;;;;;;;-2.90;100.00;99126.28;4500817;31;20080;-72
2024/01/13 06:00:09;;;;;;;14.27;6.12;;;;;;;-2.82;100.00;99126.06;4501009;31;20114;-72
2024/01/13 06:02:36;;;;;;;17.25;5.87;;;;;;;-2.81;100.00;99126.94;4500736;31;20096;-72
2024/01/13 06:05:05;;;;;;;15.02;5.78;;;;;;;-2.81;100.00;99126.94;4500895;31;20092;-72
2024/01/13 06:07:32;;;;;;;15.98;6.62;;;;;;;-2.76;100.00;99128.47;4500785;31;20099;-72
2024/01/13 06:10:10;;;;;;;14.43;6.37;;;;;;;-2.68;100.00;99133.34;4500905;31;20088;-72
2024/01/13 06:12:37;;;;;;;16.10;6.37;;;;;;;-2.64;100.00;99134.97;4500761;31;20140;-72
2024/01/13 06:15:05;;;;;;;18.02;6.18;;;;;;;-2.61;100.00;99129.75;4500827;31;20115;-73
2024/01/13 06:17:34;;;;;;;12.82;5.78;;;;;;;-2.60;100.00;99130.59;4498473;31;20099;-72
2024/01/13 06:20:01;;;;;;;15.77;7.55;;;;;;;-2.61;100.00;99118.66;4484899;32;20157;-72
2024/01/13 06:22:28;;;;;;;16.15;7.22;;;;;;;-2.59;100.00;99122.00;4484920;31;20134;-72
2024/01/13 06:24:58;;;;;;;14.93;6.60;;;;;;;-2.57;100.00;99120.25;4484935;31;20123;-72
2024/01/13 06:27:25;;;;;;;17.25;6.75;;;;;;;-2.57;100.00;99122.81;4484949;31;20140;-72
2024/01/13 06:29:52;;;;;;;19.20;7.30;;;;;;;-2.50;100.00;99120.00;4490049;31;20096;-72
2024/01/13 06:32:22;;;;;;;18.48;7.20;;;;;;;-2.50;100.00;99122.56;4500374;31;20110;-72
2024/01/13 06:34:53;;;;;;;15.73;7.20;;;;;;;-2.49;100.00;99118.28;4500494;31;20153;-72
2024/01/13 06:37:22;;;;;;;18.80;7.43;;;;;;;-2.45;100.00;99121.56;4500276;31;20116;-72
2024/01/13 06:39:48;;;;;;;17.83;6.45;;;;;;;-2.38;100.00;99115.38;4500460;31;20148;-72
2024/01/13 06:42:16;;;;;;;22.62;8.50;;;;;;;-2.40;100.00;99112.84;4500534;31;20096;-72
2024/01/13 06:44:43;;;;;;;21.23;8.85;;;;;;;-2.41;100.00;99116.31;4500371;31;20091;-72
2024/01/13 06:47:13;;;;;;;21.00;9.35;;;;;;;-2.43;100.00;99112.13;4500291;31;20126;-72
2024/01/13 06:49:41;;;;;;;22.80;9.38;;;;;;;-2.51;100.00;99110.63;4500355;31;20143;-72
2024/01/13 06:52:09;;;;;;;20.48;9.98;;;;;;;-2.45;100.00;99109.59;4499026;31;20115;-72
2024/01/13 06:54:36;;;;;;;27.42;11.77;;;;;;;-2.47;100.00;99106.22;4500477;31;20157;-72
2024/01/13 06:57:05;;;;;;;31.35;12.05;;;;;;;-2.47;100.00;99108.78;4500492;31;20183;-72
2024/01/13 06:59:34;;;;;;;30.60;11.55;;;;;;;-2.42;100.00;99113.78;4500292;31;20590;-73
2024/01/13 07:02:02;;;;;;;33.42;12.73;;;;;;;-2.46;100.00;99118.19;4500149;31;20458;-72
2024/01/13 07:04:31;;;;;;;35.70;12.68;;;;;;;-2.37;100.00;99120.47;4500049;31;20370;-73
2024/01/13 07:06:58;;;;;;;35.47;12.55;;;;;;;-2.40;100.00;99118.00;4499097;31;20126;-73
2024/01/13 07:09:26;;;;;;;37.58;13.40;;;;;;;-2.36;100.00;99114.44;4500218;31;20095;-73
2024/01/13 07:11:53;;;;;;;37.58;14.00;;;;;;;-2.29;100.00;99120.22;4498800;31;20079;-73
2024/01/13 07:14:22;;;;;;;39.95;14.23;;;;;;;-2.39;100.00;99117.13;4500086;31;20122;-73
2024/01/13 07:16:49;;;;;;;32.10;13.30;;;;;;;-2.28;100.00;99115.94;4500126;31;20088;-73
2024/01/13 07:19:18;;;;;;;32.97;13.98;;;;;;;-2.36;100.00;99117.03;4487780;31;20171;-73
2024/01/13 07:21:46;;;;;;;29.85;13.13;;;;;;;-2.35;100.00;99108.44;4484030;31;20100;-72
2024/01/13 07:24:13;;;;;;;36.80;13.88;;;;;;;-2.33;100.00;99113.53;4484202;31;20096;-73
2024/01/13 07:26:44;;;;;;;37.00;13.98;;;;;;;-2.33;100.00;99114.34;4484129;31;20156;-73
2024/01/13 07:29:12;;;;;;;39.17;14.45;;;;;;;-2.27;100.00;99112.47;4484561;31;20497;-73
2024/01/13 07:31:39;;;;;;;33.33;12.75;;;;;;;-2.29;100.00;99109.13;4499761;31;20443;-73
2024/01/13 07:34:07;;;;;;;30.83;13.75;;;;;;;-2.29;100.00;99114.25;4499404;31;20096;-73
2024/01/13 07:36:37;;;;;;;38.33;13.73;;;;;;;-2.21;100.00;99100.31;4499862;31;20118;-73
2024/01/13 07:39:09;;;;;;;39.33;14.27;;;;;;;-2.23;100.00;99099.50;4499537;31;20524;-73
2024/01/13 07:41:37;;;;;;;33.80;12.85;;;;;;;-2.22;100.00;99101.19;4499641;31;20106;-73
2024/01/13 07:44:09;;;;;;;35.55;12.25;;;;;;;-2.24;100.00;99096.97;4499638;31;20487;-73
2024/01/13 07:46:41;;;;;;;36.60;14.38;;;;;;;-2.32;100.00;99100.66;4499607;31;20088;-73
2024/01/13 07:49:10;;;;;;;40.33;13.98;;;;;;;-2.30;100.00;99094.59;4499715;31;20088;-72
2024/01/13 07:51:39;;;;;;;41.45;14.20;;;;;;;-2.30;100.00;99092.91;4499921;31;20179;-73
2024/01/13 07:54:06;;;;;;;41.25;13.73;;;;;;;-2.31;100.00;99096.34;4499384;31;20152;-72
2024/01/13 07:56:35;;;;;;;36.33;12.75;;;;;;;-2.26;100.00;99096.19;4499502;31;20119;-72
2024/01/13 07:59:03;;;;;;;37.50;14.27;;;;;;;-2.27;100.00;99100.50;4499209;31;20084;-73
2024/01/13 08:01:31;;;;;;;38.60;15.15;;;;;;;-2.22;100.00;99090.91;4499315;31;20519;-73
2024/01/13 08:04:08;;;;;;;45.40;14.25;;;;;;;-2.28;100.00;99082.59;4500227;31;20080;-73
2024/01/13 08:06:35;;;;;;;36.00;13.82;;;;;;;-2.21;100.00;99086.63;4501726;31;20114;-73
2024/01/13 08:09:04;;;;;;;46.20;14.95;;;;;;;-2.23;100.00;99088.41;4501510;31;20099;-73
2024/01/13 08:11:32;;;;;;;36.97;14.57;;;;;;;-2.22;100.00;99092.66;4501766;31;20112;-73
2024/01/13 08:14:08;;;;;;;40.63;15.05;;;;;;;-2.12;100.00;99090.62;4501814;31;20487;-73
2024/01/13 08:16:35;;;;;;;38.75;13.55;;;;;;;-2.01;100.00;99083.44;4501459;31;20084;-73
2024/01/13 08:19:03;;;;;;;50.05;15.32;;;;;;;-1.98;100.00;99079.00;4490781;31;20118;-73
2024/01/13 08:21:33;;;;;;;37.28;14.02;;;;;;;-1.96;100.00;99069.53;4486059;31;20418;-73
2024/01/13 08:24:14;;;;;;;34.17;12.35;;;;;;;-1.92;100.00;99077.97;4485718;31;20092;-73
2024/01/13 08:26:42;;;;;;;34.83;14.18;;;;;;;-1.97;100.00;99088.41;4485678;31;20613;-73
2024/01/13 08:29:10;;;;;;;43.45;16.73;;;;;;;-1.91;100.00;99089.09;4485876;31;20530;-73
2024/01/13 08:31:38;;;;;;;47.47;15.10;;;;;;;-1.82;100.00;99078.50;4501522;31;20119;-73
2024/01/13 08:34:08;;;;;;;45.17;16.70;;;;;;;-1.75;100.00;99085.13;4501195;31;20153;-72
2024/01/13 08:36:38;;;;;;;44.20;14.70;;;;;;;-1.79;100.00;99088.66;4501475;31;20164;-73
2024/01/13 08:39:06;;;;;;;42.35;16.40;;;;;;;-1.78;100.00;99067.25;4501197;31;20110;-73
2024/01/13 08:41:34;;;;;;;39.55;14.48;;;;;;;-1.88;100.00;99078.72;4501378;31;20080;-73
2024/01/13 08:44:03;;;;;;;54.85;17.65;;;;;;;-1.86;100.00;99080.34;4501324;31;20100;-73
2024/01/13 08:46:30;;;;;;;43.25;15.45;;;;;;;-1.83;100.00;99082.81;4501302;31;20477;-73
2024/01/13 08:49:08;;;;;;;41.90;13.02;;;;;;;-1.73;100.00;99082.50;4501329;31;20144;-73
2024/01/13 08:51:36;;;;;;;44.33;13.77;;;;;;;-1.80;100.00;99075.00;4501473;31;20088;-73
2024/01/13 08:54:06;;;;;;;30.77;10.85;;;;;;;-1.88;100.00;99081.28;4501285;31;20096;-73
2024/01/13 08:56:37;;;;;;;33.42;13.70;;;;;;;-1.86;100.00;99090.62;4501267;31;20136;-73
2024/01/13 08:59:08;;;;;;;38.00;13.68;;;;;;;-1.92;100.00;99092.53;4501077;31;20457;-73
2024/01/13 09:01:37;;;;;;;37.83;15.18;;;;;;;-1.95;100.00;99090.91;4501229;31;20517;-73
2024/01/13 09:04:08;;;;;;;41.78;14.23;;;;;;;-1.98;100.00;99094.41;4501337;31;20392;-73
2024/01/13 09:06:36;;;;;;;41.47;14.40;;;;;;;-1.99;100.00;99092.72;4501260;31;20083;-73
2024/01/13 09:09:04;;;;;;;32.70;11.52;;;;;;;-1.96;100.00;99087.50;4500966;31;20100;-73
2024/01/13 09:11:32;;;;;;;37.60;13.68;;;;;;;-1.85;100.00;99086.31;4501149;31;20100;-73
2024/01/13 09:14:11;;;;;;;38.88;12.10;;;;;;;-1.89;100.00;99093.28;4501183;31;20108;-73
2024/01/13 09:16:40;;;;;;;33.38;12.45;;;;;;;-1.92;100.00;99087.41;4500470;31;20498;-73
2024/01/13 09:19:08;;;;;;;31.77;12.25;;;;;;;-1.87;100.00;99094.06;4489859;31;20119;-73
2024/01/13 09:21:38;;;;;;;32.05;12.95;;;;;;;-1.89;100.00;99095.00;4485483;31;20107;-73
2024/01/13 09:24:16;;;;;;;34.85;10.23;;;;;;;-1.82;100.00;99107.59;4485133;31;20115;-73
2024/01/13 09:26:49;;;;;;;35.53;12.37;;;;;;;-1.82;100.00;99101.59;4485617;31;20092;-73
2024/01/13 09:29:18;;;;;;;33.83;11.32;;;;;;;-1.84;100.00;99100.84;4486426;31;20097;-73
2024/01/13 09:31:50;;;;;;;31.55;11.40;;;;;;;-1.84;100.00;99099.09;4501084;31;20084;-73
2024/01/13 09:34:19;;;;;;;28.12;11.52;;;;;;;-1.89;100.00;99097.56;4501218;31;20092;-73
2024/01/13 09:36:47;;;;;;;23.75;9.82;;;;;;;-1.94;100.00;99095.16;4501340;31;20106;-73
2024/01/13 09:39:21;;;;;;;35.30;12.02;;;;;;;-2.00;100.00;99087.66;4500901;31;20096;-73
2024/01/13 09:41:51;;;;;;;32.15;10.02;;;;;;;-1.97;100.00;99093.53;4500812;31;20083;-73
2024/01/13 09:44:24;;;;;;;28.40;10.13;;;;;;;-1.97;100.00;99082.41;4500830;31;20110;-73
2024/01/13 09:46:54;;;;;;;20.12;7.93;;;;;;;-2.01;100.00;99073.16;4500923;31;20088;-73
2024/01/13 09:49:29;;;;;;;32.38;12.07;;;;;;;-2.02;100.00;99056.06;4500937;31;20529;-73
2024/01/13 09:52:00;;;;;;;33.90;12.65;;;;;;;-2.00;100.00;99062.84;4500977;31;20498;-73
2024/01/13 09:54:29;;;;;;;28.80;11.20;;;;;;;-1.93;100.00;99055.75;4499716;31;20461;-73
2024/01/13 09:56:58;;;;;;;32.95;11.38;;;;;;;-1.83;100.00;99048.59;4500978;31;20088;-73
2024/01/13 09:59:28;;;;;;;27.33;11.60;;;;;;;-1.76;100.00;99050.03;4500631;31;20092;-73
2024/01/13 10:02:02;;;;;;;32.90;11.23;;;;;;;-1.67;100.00;99034.31;4501010;31;20691;-73
2024/01/13 10:04:36;;;;;;;35.47;12.75;;;;;;;-1.56;100.00;99027.97;4500663;31;20096;-73
2024/01/13 10:07:07;;;;;;;26.00;11.12;;;;;;;-1.50;100.00;99030.31;4500846;31;20092;-73
2024/01/13 10:09:36;;;;;;;18.87;7.53;;;;;;;-1.48;100.00;99031.94;4500737;31;20076;-73
2024/01/13 10:12:06;;;;;;;30.52;9.35;;;;;;;-1.50;100.00;99027.75;4500836;31;20537;-73
2024/01/13 10:14:40;;;;;;;18.48;7.82;;;;;;;-1.44;100.00;99038.66;4500761;31;20107;-73
2024/01/13 10:17:11;;;;;;;23.90;8.10;;;;;;;-1.58;100.00;99043.44;4501255;31;20084;-73
2024/01/13 10:19:41;;;;;;;32.17;10.82;;;;;;;-1.57;100.00;99034.84;4486245;31;20134;-73
2024/01/13 10:22:10;;;;;;;30.23;10.13;;;;;;;-1.47;100.00;99027.63;4485019;31;20080;-73
2024/01/13 10:24:37;;;;;;;22.90;7.62;;;;;;;-1.47;100.00;99030.19;4484934;31;20112;-73
2024/01/13 10:27:08;;;;;;;19.85;7.85;;;;;;;-1.54;100.00;99031.34;4484717;31;20092;-73
2024/01/13 10:29:41;;;;;;;22.37;8.73;;;;;;;-1.56;100.00;99035.66;4488646;31;20083;-73
2024/01/13 10:32:10;;;;;;;16.15;6.47;;;;;;;-1.50;100.00;99032.87;4500563;31;20452;-73
2024/01/13 10:34:45;;;;;;;14.10;7.10;;;;;;;-1.54;100.00;99036.47;4500555;31;20119;-73
2024/01/13 10:37:13;;;;;;;17.37;6.50;;;;;;;-1.51;100.00;99026.91;4500674;31;20800;-73
2024/01/13 10:39:41;;;;;;;24.45;8.82;;;;;;;-1.50;100.00;99028.59;4500420;31;20570;-73
2024/01/13 10:42:15;;;;;;;20.88;8.10;;;;;;;-1.45;100.00;99020.72;4500689;31;20095;-73
2024/01/13 10:44:47;;;;;;;19.23;8.48;;;;;;;-1.38;100.00;99016.19;4500266;31;20101;-73
2024/01/13 10:47:20;;;;;;;21.87;7.37;;;;;;;-1.39;100.00;99015.34;4499362;31;20446;-73
2024/01/13 10:49:50;;;;;;;21.33;8.40;;;;;;;-1.36;100.00;99009.25;4498982;31;20118;-73
2024/01/13 10:52:26;;;;;;;19.35;6.65;;;;;;;-1.36;100.00;99012.66;4500597;31;20087;-73
2024/01/13 10:54:55;;;;;;;16.42;7.03;;;;;;;-1.29;100.00;98992.72;4500488;31;20089;-73
2024/01/13 10:57:25;;;;;;;19.40;7.30;;;;;;;-1.36;100.00;98998.97;4500369;31;20080;-73
2024/01/13 10:59:54;;;;;;;17.35;7.18;;;;;;;-1.40;100.00;99003.37;4498863;31;20453;-73
2024/01/13 11:02:22;;;;;;;18.40;7.03;;;;;;;-1.34;100.00;99003.16;4500380;31;20093;-73
2024/01/13 11:04:49;;;;;;;13.75;5.78;;;;;;;-1.33;100.00;99007.41;4500189;31;20116;-73
2024/01/13 11:07:16;;;;;;;21.52;7.20;;;;;;;-1.31;100.00;99012.50;4498932;31;20096;-73
2024/01/13 11:09:47;;;;;;;18.92;6.82;;;;;;;-1.24;100.00;98998.53;4500272;31;20204;-73
2024/01/13 11:12:34;;;;;;;14.55;6.20;;;;;;;-1.18;100.00;98993.16;4499088;31;20140;-73
2024/01/13 11:15:05;;;;;;;18.48;7.15;;;;;;;-1.28;100.00;98995.22;4500299;31;20434;-73
2024/01/13 11:17:34;;;;;;;15.63;6.43;;;;;;;-1.27;100.00;99004.63;4498211;31;20138;-73
2024/01/13 11:20:04;;;;;;;13.00;5.28;;;;;;;-1.17;100.00;98994.00;4484190;31;20093;-73
2024/01/13 11:22:36;;;;;;;17.58;6.53;;;;;;;-1.14;100.00;98989.56;4484266;31;20438;-73
2024/01/13 11:25:28;;;;;;;16.83;6.72;;;;;;;-1.10;100.00;98990.31;4484365;32;20081;-73
2024/01/13 11:28:00;;;;;;;26.87;7.12;;;;;;;-1.14;100.00;98984.41;4484401;32;20108;-73